sensor_id;sensor_type;location;lat;lon;timestamp;P1;durP1;ratioP1;P2;durP2;ratioP2
21987;SDS011;11158;53.404;-1.510;2023-01-23T00:00:28;25.60;;;15.35;;
21987;SDS011;11158;53.404;-1.510;2023-01-23T00:02:53;24.20;;;14.45;;
21987;SDS011;11158;53.404;-1.510;2023-01-23T00:05:21;24.05;;;15.95;;
21987;SDS011;11158;53.404;-1.510;2023-01-23T00:07:47;23.48;;;14.88;;
21987;SDS011;11158;53.404;-1.510;2023-01-23T00:10:13;26.38;;;16.52;;
21987;SDS011;11158;53.404;-1.510;2023-01-23T00:12:41;26.67;;;15.77;;
21987;SDS011;11158;53.404;-1.510;2023-01-23T00:15:10;23.88;;;15.73;;
21987;SDS011;11158;53.404;-1.510;2023-01-23T00:17:37;28.38;;;16.30;;
21987;SDS011;11158;53.404;-1.510;2023-01-23T00:20:08;16.57;;;11.63;;
21987;SDS011;11158;53.404;-1.510;2023-01-23T00:22:34;22.42;;;14.68;;
21987;SDS011;11158;53.404;-1.510;2023-01-23T00:25:00;23.60;;;15.93;;
21987;SDS011;11158;53.404;-1.510;2023-01-23T00:27:26;24.20;;;15.20;;
21987;SDS011;11158;53.404;-1.510;2023-01-23T00:29:52;23.75;;;15.55;;
21987;SDS011;11158;53.404;-1.510;2023-01-23T00:32:18;23.52;;;16.25;;
21987;SDS011;11158;53.404;-1.510;2023-01-23T00:34:44;23.83;;;15.43;;
21987;SDS011;11158;53.404;-1.510;2023-01-23T00:37:11;24.23;;;15.10;;
21987;SDS011;11158;53.404;-1.510;2023-01-23T00:39:38;23.88;;;15.07;;
21987;SDS011;11158;53.404;-1.510;2023-01-23T00:42:04;24.70;;;15.82;;
21987;SDS011;11158;53.404;-1.510;2023-01-23T00:44:30;27.98;;;16.58;;
21987;SDS011;11158;53.404;-1.510;2023-01-23T00:46:56;24.27;;;15.48;;
21987;SDS011;11158;53.404;-1.510;2023-01-23T00:49:22;25.15;;;16.02;;
21987;SDS011;11158;53.404;-1.510;2023-01-23T00:51:48;26.02;;;16.02;;
21987;SDS011;11158;53.404;-1.510;2023-01-23T00:54:15;24.33;;;14.90;;
21987;SDS011;11158;53.404;-1.510;2023-01-23T00:56:42;24.10;;;15.35;;
21987;SDS011;11158;53.404;-1.510;2023-01-23T00:59:08;25.50;;;15.07;;
21987;SDS011;11158;53.404;-1.510;2023-01-23T01:01:34;20.90;;;13.52;;
21987;SDS011;11158;53.404;-1.510;2023-01-23T01:03:59;22.42;;;13.18;;
21987;SDS011;11158;53.404;-1.510;2023-01-23T01:06:26;22.65;;;14.65;;
21987;SDS011;11158;53.404;-1.510;2023-01-23T01:08:53;22.65;;;14.40;;
21987;SDS011;11158;53.404;-1.510;2023-01-23T01:11:19;22.67;;;14.38;;
21987;SDS011;11158;53.404;-1.510;2023-01-23T01:13:45;21.77;;;14.50;;
21987;SDS011;11158;53.404;-1.510;2023-01-23T01:16:11;22.00;;;14.85;;
21987;SDS011;11158;53.404;-1.510;2023-01-23T01:18:37;24.45;;;14.60;;
21987;SDS011;11158;53.404;-1.510;2023-01-23T01:21:07;21.75;;;14.68;;
21987;SDS011;11158;53.404;-1.510;2023-01-23T01:23:35;23.08;;;15.45;;
21987;SDS011;11158;53.404;-1.510;2023-01-23T01:26:02;21.85;;;15.95;;
21987;SDS011;11158;53.404;-1.510;2023-01-23T01:28:29;29.08;;;16.25;;
21987;SDS011;11158;53.404;-1.510;2023-01-23T01:30:57;23.70;;;15.27;;
21987;SDS011;11158;53.404;-1.510;2023-01-23T01:33:29;23.90;;;16.73;;
21987;SDS011;11158;53.404;-1.510;2023-01-23T01:35:55;23.83;;;15.48;;
21987;SDS011;11158;53.404;-1.510;2023-01-23T01:38:22;26.80;;;15.38;;
21987;SDS011;11158;53.404;-1.510;2023-01-23T01:40:48;22.45;;;14.77;;
21987;SDS011;11158;53.404;-1.510;2023-01-23T01:43:17;21.20;;;14.43;;
21987;SDS011;11158;53.404;-1.510;2023-01-23T01:46:06;29.33;;;15.32;;
21987;SDS011;11158;53.404;-1.510;2023-01-23T01:49:01;20.88;;;14.15;;
21987;SDS011;11158;53.404;-1.510;2023-01-23T01:56:50;23.63;;;15.02;;
21987;SDS011;11158;53.404;-1.510;2023-01-23T01:59:30;21.63;;;13.88;;
21987;SDS011;11158;53.404;-1.510;2023-01-23T02:02:02;19.35;;;13.50;;
21987;SDS011;11158;53.404;-1.510;2023-01-23T02:04:37;20.98;;;13.43;;
21987;SDS011;11158;53.404;-1.510;2023-01-23T02:07:13;26.20;;;14.45;;
21987;SDS011;11158;53.404;-1.510;2023-01-23T02:09:43;25.30;;;13.63;;
21987;SDS011;11158;53.404;-1.510;2023-01-23T02:12:10;19.73;;;13.30;;
21987;SDS011;11158;53.404;-1.510;2023-01-23T02:14:35;23.13;;;14.15;;
21987;SDS011;11158;53.404;-1.510;2023-01-23T02:17:01;21.40;;;13.60;;
21987;SDS011;11158;53.404;-1.510;2023-01-23T02:20:11;22.77;;;14.40;;
21987;SDS011;11158;53.404;-1.510;2023-01-23T02:22:44;24.70;;;14.77;;
21987;SDS011;11158;53.404;-1.510;2023-01-23T02:27:58;29.08;;;14.23;;
21987;SDS011;11158;53.404;-1.510;2023-01-23T02:30:25;21.52;;;14.43;;
21987;SDS011;11158;53.404;-1.510;2023-01-23T02:32:54;20.38;;;14.20;;
21987;SDS011;11158;53.404;-1.510;2023-01-23T02:35:31;21.35;;;13.98;;
21987;SDS011;11158;53.404;-1.510;2023-01-23T02:37:59;19.98;;;13.48;;
21987;SDS011;11158;53.404;-1.510;2023-01-23T02:40:32;20.88;;;13.45;;
21987;SDS011;11158;53.404;-1.510;2023-01-23T02:43:06;22.02;;;13.82;;
21987;SDS011;11158;53.404;-1.510;2023-01-23T02:45:35;18.17;;;13.23;;
21987;SDS011;11158;53.404;-1.510;2023-01-23T02:48:01;19.77;;;13.45;;
21987;SDS011;11158;53.404;-1.510;2023-01-23T02:50:28;25.55;;;14.27;;
21987;SDS011;11158;53.404;-1.510;2023-01-23T02:52:54;21.08;;;14.05;;
21987;SDS011;11158;53.404;-1.510;2023-01-23T02:55:22;27.25;;;14.65;;
21987;SDS011;11158;53.404;-1.510;2023-01-23T02:57:51;20.15;;;14.38;;
21987;SDS011;11158;53.404;-1.510;2023-01-23T03:00:17;20.42;;;13.40;;
21987;SDS011;11158;53.404;-1.510;2023-01-23T03:02:48;22.05;;;13.70;;
21987;SDS011;11158;53.404;-1.510;2023-01-23T03:05:15;20.08;;;13.70;;
21987;SDS011;11158;53.404;-1.510;2023-01-23T03:07:42;20.42;;;13.38;;
21987;SDS011;11158;53.404;-1.510;2023-01-23T03:10:09;20.75;;;14.05;;
21987;SDS011;11158;53.404;-1.510;2023-01-23T03:12:36;19.02;;;12.65;;
21987;SDS011;11158;53.404;-1.510;2023-01-23T03:15:07;21.10;;;13.82;;
21987;SDS011;11158;53.404;-1.510;2023-01-23T03:17:33;24.75;;;14.30;;
21987;SDS011;11158;53.404;-1.510;2023-01-23T03:20:00;22.08;;;14.00;;
21987;SDS011;11158;53.404;-1.510;2023-01-23T03:22:26;21.55;;;13.52;;
21987;SDS011;11158;53.404;-1.510;2023-01-23T03:24:51;22.75;;;13.48;;
21987;SDS011;11158;53.404;-1.510;2023-01-23T03:27:17;21.00;;;13.70;;
21987;SDS011;11158;53.404;-1.510;2023-01-23T03:29:42;20.30;;;12.25;;
21987;SDS011;11158;53.404;-1.510;2023-01-23T03:32:27;21.05;;;13.02;;
21987;SDS011;11158;53.404;-1.510;2023-01-23T03:34:53;20.45;;;12.38;;
21987;SDS011;11158;53.404;-1.510;2023-01-23T03:37:19;23.52;;;12.90;;
21987;SDS011;11158;53.404;-1.510;2023-01-23T03:39:45;20.17;;;13.35;;
21987;SDS011;11158;53.404;-1.510;2023-01-23T03:42:31;23.08;;;12.70;;
21987;SDS011;11158;53.404;-1.510;2023-01-23T03:44:58;19.35;;;12.73;;
21987;SDS011;11158;53.404;-1.510;2023-01-23T03:47:23;19.58;;;12.27;;
21987;SDS011;11158;53.404;-1.510;2023-01-23T03:49:50;23.98;;;12.95;;
21987;SDS011;11158;53.404;-1.510;2023-01-23T03:52:16;23.60;;;14.43;;
21987;SDS011;11158;53.404;-1.510;2023-01-23T03:54:43;20.88;;;13.32;;
21987;SDS011;11158;53.404;-1.510;2023-01-23T03:57:09;18.85;;;12.35;;
21987;SDS011;11158;53.404;-1.510;2023-01-23T03:59:35;21.05;;;13.45;;
21987;SDS011;11158;53.404;-1.510;2023-01-23T04:02:11;20.50;;;13.65;;
21987;SDS011;11158;53.404;-1.510;2023-01-23T04:04:39;24.60;;;14.27;;
21987;SDS011;11158;53.404;-1.510;2023-01-23T04:07:08;23.33;;;13.90;;
21987;SDS011;11158;53.404;-1.510;2023-01-23T04:09:39;22.57;;;13.43;;
21987;SDS011;11158;53.404;-1.510;2023-01-23T04:12:05;20.83;;;13.35;;
21987;SDS011;11158;53.404;-1.510;2023-01-23T04:14:31;22.17;;;13.35;;
21987;SDS011;11158;53.404;-1.510;2023-01-23T04:17:05;22.88;;;13.35;;
21987;SDS011;11158;53.404;-1.510;2023-01-23T04:19:31;19.27;;;12.48;;
21987;SDS011;11158;53.404;-1.510;2023-01-23T04:21:58;21.35;;;12.82;;
21987;SDS011;11158;53.404;-1.510;2023-01-23T04:24:25;20.00;;;12.18;;
21987;SDS011;11158;53.404;-1.510;2023-01-23T04:26:51;18.08;;;10.63;;
21987;SDS011;11158;53.404;-1.510;2023-01-23T04:29:18;19.45;;;11.23;;
21987;SDS011;11158;53.404;-1.510;2023-01-23T04:31:45;18.80;;;12.38;;
21987;SDS011;11158;53.404;-1.510;2023-01-23T04:34:10;21.23;;;13.02;;
21987;SDS011;11158;53.404;-1.510;2023-01-23T04:36:36;19.20;;;12.23;;
21987;SDS011;11158;53.404;-1.510;2023-01-23T04:39:02;17.23;;;10.95;;
21987;SDS011;11158;53.404;-1.510;2023-01-23T04:41:31;21.02;;;12.35;;
21987;SDS011;11158;53.404;-1.510;2023-01-23T04:43:58;23.08;;;11.80;;
21987;SDS011;11158;53.404;-1.510;2023-01-23T04:46:44;17.88;;;11.77;;
21987;SDS011;11158;53.404;-1.510;2023-01-23T04:49:14;18.10;;;11.27;;
21987;SDS011;11158;53.404;-1.510;2023-01-23T04:51:41;17.17;;;11.48;;
21987;SDS011;11158;53.404;-1.510;2023-01-23T04:54:08;17.80;;;10.95;;
21987;SDS011;11158;53.404;-1.510;2023-01-23T04:56:35;15.32;;;10.15;;
21987;SDS011;11158;53.404;-1.510;2023-01-23T04:59:00;15.45;;;10.30;;
21987;SDS011;11158;53.404;-1.510;2023-01-23T05:01:26;14.77;;;10.30;;
21987;SDS011;11158;53.404;-1.510;2023-01-23T05:03:52;17.60;;;10.45;;
21987;SDS011;11158;53.404;-1.510;2023-01-23T05:06:18;16.35;;;10.40;;
21987;SDS011;11158;53.404;-1.510;2023-01-23T05:08:44;18.58;;;11.13;;
21987;SDS011;11158;53.404;-1.510;2023-01-23T05:11:10;16.00;;;10.13;;
21987;SDS011;11158;53.404;-1.510;2023-01-23T05:13:36;16.77;;;10.77;;
21987;SDS011;11158;53.404;-1.510;2023-01-23T05:16:03;18.83;;;11.05;;
21987;SDS011;11158;53.404;-1.510;2023-01-23T05:18:29;13.60;;;9.98;;
21987;SDS011;11158;53.404;-1.510;2023-01-23T05:20:54;16.63;;;11.20;;
21987;SDS011;11158;53.404;-1.510;2023-01-23T05:23:20;19.85;;;10.95;;
21987;SDS011;11158;53.404;-1.510;2023-01-23T05:25:46;19.98;;;12.52;;
21987;SDS011;11158;53.404;-1.510;2023-01-23T05:28:11;20.70;;;11.68;;
21987;SDS011;11158;53.404;-1.510;2023-01-23T05:30:37;20.40;;;11.55;;
21987;SDS011;11158;53.404;-1.510;2023-01-23T05:33:04;20.65;;;10.90;;
21987;SDS011;11158;53.404;-1.510;2023-01-23T05:35:30;14.27;;;9.77;;
21987;SDS011;11158;53.404;-1.510;2023-01-23T05:37:55;13.57;;;9.35;;
21987;SDS011;11158;53.404;-1.510;2023-01-23T05:40:21;15.38;;;9.95;;
21987;SDS011;11158;53.404;-1.510;2023-01-23T05:42:48;14.68;;;10.23;;
21987;SDS011;11158;53.404;-1.510;2023-01-23T05:45:13;14.75;;;10.02;;
21987;SDS011;11158;53.404;-1.510;2023-01-23T05:47:40;15.35;;;10.48;;
21987;SDS011;11158;53.404;-1.510;2023-01-23T05:50:07;18.02;;;11.35;;
21987;SDS011;11158;53.404;-1.510;2023-01-23T05:52:34;20.38;;;11.93;;
21987;SDS011;11158;53.404;-1.510;2023-01-23T05:55:00;22.27;;;12.93;;
21987;SDS011;11158;53.404;-1.510;2023-01-23T05:57:27;19.10;;;12.88;;
21987;SDS011;11158;53.404;-1.510;2023-01-23T05:59:53;24.00;;;13.98;;
21987;SDS011;11158;53.404;-1.510;2023-01-23T06:02:19;23.33;;;14.77;;
21987;SDS011;11158;53.404;-1.510;2023-01-23T06:04:48;21.48;;;14.40;;
21987;SDS011;11158;53.404;-1.510;2023-01-23T06:07:14;19.50;;;13.73;;
21987;SDS011;11158;53.404;-1.510;2023-01-23T06:09:41;22.05;;;14.50;;
21987;SDS011;11158;53.404;-1.510;2023-01-23T06:12:08;21.92;;;15.48;;
21987;SDS011;11158;53.404;-1.510;2023-01-23T06:14:35;26.50;;;15.75;;
21987;SDS011;11158;53.404;-1.510;2023-01-23T06:17:00;24.85;;;15.77;;
21987;SDS011;11158;53.404;-1.510;2023-01-23T06:19:26;26.33;;;16.27;;
21987;SDS011;11158;53.404;-1.510;2023-01-23T06:21:52;21.73;;;15.18;;
21987;SDS011;11158;53.404;-1.510;2023-01-23T06:24:18;24.45;;;16.38;;
21987;SDS011;11158;53.404;-1.510;2023-01-23T06:26:43;24.90;;;16.45;;
21987;SDS011;11158;53.404;-1.510;2023-01-23T06:29:10;28.45;;;16.45;;
21987;SDS011;11158;53.404;-1.510;2023-01-23T06:31:36;26.08;;;16.08;;
21987;SDS011;11158;53.404;-1.510;2023-01-23T06:34:03;24.65;;;15.57;;
21987;SDS011;11158;53.404;-1.510;2023-01-23T06:36:29;23.63;;;15.70;;
21987;SDS011;11158;53.404;-1.510;2023-01-23T06:38:55;24.48;;;15.45;;
21987;SDS011;11158;53.404;-1.510;2023-01-23T06:41:21;24.63;;;16.52;;
21987;SDS011;11158;53.404;-1.510;2023-01-23T06:43:48;20.58;;;14.75;;
21987;SDS011;11158;53.404;-1.510;2023-01-23T06:46:16;24.92;;;15.68;;
21987;SDS011;11158;53.404;-1.510;2023-01-23T06:48:41;23.00;;;15.57;;
21987;SDS011;11158;53.404;-1.510;2023-01-23T06:51:07;26.25;;;16.02;;
21987;SDS011;11158;53.404;-1.510;2023-01-23T06:53:32;25.33;;;17.25;;
21987;SDS011;11158;53.404;-1.510;2023-01-23T06:55:59;24.83;;;16.63;;
21987;SDS011;11158;53.404;-1.510;2023-01-23T06:58:26;25.00;;;15.73;;
21987;SDS011;11158;53.404;-1.510;2023-01-23T07:00:53;27.00;;;16.33;;
21987;SDS011;11158;53.404;-1.510;2023-01-23T07:03:19;23.90;;;16.35;;
21987;SDS011;11158;53.404;-1.510;2023-01-23T07:05:45;26.23;;;16.88;;
21987;SDS011;11158;53.404;-1.510;2023-01-23T07:08:11;27.02;;;17.02;;
21987;SDS011;11158;53.404;-1.510;2023-01-23T07:10:37;25.17;;;17.40;;
21987;SDS011;11158;53.404;-1.510;2023-01-23T07:13:04;26.10;;;16.67;;
21987;SDS011;11158;53.404;-1.510;2023-01-23T07:15:31;26.13;;;16.65;;
21987;SDS011;11158;53.404;-1.510;2023-01-23T07:17:58;27.67;;;17.60;;
21987;SDS011;11158;53.404;-1.510;2023-01-23T07:20:25;25.02;;;17.08;;
21987;SDS011;11158;53.404;-1.510;2023-01-23T07:22:55;23.45;;;15.80;;
21987;SDS011;11158;53.404;-1.510;2023-01-23T07:25:22;28.42;;;17.40;;
21987;SDS011;11158;53.404;-1.510;2023-01-23T07:27:48;27.73;;;17.23;;
21987;SDS011;11158;53.404;-1.510;2023-01-23T07:30:15;23.33;;;16.20;;
21987;SDS011;11158;53.404;-1.510;2023-01-23T07:32:41;24.58;;;15.50;;
21987;SDS011;11158;53.404;-1.510;2023-01-23T07:35:07;25.60;;;17.27;;
21987;SDS011;11158;53.404;-1.510;2023-01-23T07:37:34;23.73;;;16.55;;
21987;SDS011;11158;53.404;-1.510;2023-01-23T07:40:00;24.25;;;16.85;;
21987;SDS011;11158;53.404;-1.510;2023-01-23T07:42:26;22.33;;;15.93;;
21987;SDS011;11158;53.404;-1.510;2023-01-23T07:44:51;22.38;;;16.33;;
21987;SDS011;11158;53.404;-1.510;2023-01-23T07:47:18;25.15;;;16.48;;
21987;SDS011;11158;53.404;-1.510;2023-01-23T07:49:44;26.75;;;16.92;;
21987;SDS011;11158;53.404;-1.510;2023-01-23T07:52:10;23.88;;;17.38;;
21987;SDS011;11158;53.404;-1.510;2023-01-23T07:54:35;26.40;;;17.33;;
21987;SDS011;11158;53.404;-1.510;2023-01-23T07:57:01;23.98;;;16.95;;
21987;SDS011;11158;53.404;-1.510;2023-01-23T07:59:27;23.38;;;15.77;;
21987;SDS011;11158;53.404;-1.510;2023-01-23T08:01:53;23.85;;;16.65;;
21987;SDS011;11158;53.404;-1.510;2023-01-23T08:04:19;25.15;;;16.98;;
21987;SDS011;11158;53.404;-1.510;2023-01-23T08:06:45;27.88;;;18.73;;
21987;SDS011;11158;53.404;-1.510;2023-01-23T08:09:10;24.27;;;17.75;;
21987;SDS011;11158;53.404;-1.510;2023-01-23T08:11:38;28.63;;;18.92;;
21987;SDS011;11158;53.404;-1.510;2023-01-23T08:14:04;28.80;;;18.65;;
21987;SDS011;11158;53.404;-1.510;2023-01-23T08:16:29;29.40;;;19.10;;
21987;SDS011;11158;53.404;-1.510;2023-01-23T08:18:56;28.38;;;18.63;;
21987;SDS011;11158;53.404;-1.510;2023-01-23T08:21:21;31.33;;;20.55;;
21987;SDS011;11158;53.404;-1.510;2023-01-23T08:23:49;32.53;;;20.35;;
21987;SDS011;11158;53.404;-1.510;2023-01-23T08:26:15;32.20;;;21.45;;
21987;SDS011;11158;53.404;-1.510;2023-01-23T08:28:42;28.45;;;19.17;;
21987;SDS011;11158;53.404;-1.510;2023-01-23T08:31:13;34.25;;;19.00;;
21987;SDS011;11158;53.404;-1.510;2023-01-23T08:33:39;31.45;;;19.23;;
21987;SDS011;11158;53.404;-1.510;2023-01-23T08:36:05;27.45;;;18.42;;
21987;SDS011;11158;53.404;-1.510;2023-01-23T08:38:32;29.02;;;17.80;;
21987;SDS011;11158;53.404;-1.510;2023-01-23T08:40:58;30.05;;;19.00;;
21987;SDS011;11158;53.404;-1.510;2023-01-23T08:43:26;27.42;;;19.15;;
21987;SDS011;11158;53.404;-1.510;2023-01-23T08:45:53;27.92;;;18.98;;
21987;SDS011;11158;53.404;-1.510;2023-01-23T08:48:20;21.27;;;16.77;;
21987;SDS011;11158;53.404;-1.510;2023-01-23T08:50:48;26.23;;;17.45;;
21987;SDS011;11158;53.404;-1.510;2023-01-23T08:53:13;27.05;;;17.77;;
21987;SDS011;11158;53.404;-1.510;2023-01-23T08:55:39;31.70;;;17.30;;
21987;SDS011;11158;53.404;-1.510;2023-01-23T08:58:06;23.15;;;17.23;;
21987;SDS011;11158;53.404;-1.510;2023-01-23T09:00:33;25.25;;;17.73;;
21987;SDS011;11158;53.404;-1.510;2023-01-23T09:03:03;26.05;;;17.85;;
21987;SDS011;11158;53.404;-1.510;2023-01-23T09:05:29;26.92;;;18.50;;
21987;SDS011;11158;53.404;-1.510;2023-01-23T09:07:56;32.97;;;19.02;;
21987;SDS011;11158;53.404;-1.510;2023-01-23T09:10:23;28.65;;;18.38;;
21987;SDS011;11158;53.404;-1.510;2023-01-23T09:12:52;27.77;;;18.98;;
21987;SDS011;11158;53.404;-1.510;2023-01-23T09:15:20;32.92;;;21.20;;
21987;SDS011;11158;53.404;-1.510;2023-01-23T09:17:47;32.72;;;19.80;;
21987;SDS011;11158;53.404;-1.510;2023-01-23T09:20:13;31.40;;;19.88;;
21987;SDS011;11158;53.404;-1.510;2023-01-23T09:22:40;29.67;;;18.83;;
21987;SDS011;11158;53.404;-1.510;2023-01-23T09:25:06;34.58;;;19.88;;
21987;SDS011;11158;53.404;-1.510;2023-01-23T09:27:32;30.35;;;19.83;;
21987;SDS011;11158;53.404;-1.510;2023-01-23T09:29:58;33.50;;;20.55;;
21987;SDS011;11158;53.404;-1.510;2023-01-23T09:32:24;29.83;;;19.42;;
21987;SDS011;11158;53.404;-1.510;2023-01-23T09:34:49;30.25;;;19.70;;
21987;SDS011;11158;53.404;-1.510;2023-01-23T09:37:15;30.67;;;20.35;;
21987;SDS011;11158;53.404;-1.510;2023-01-23T09:39:42;31.48;;;20.00;;
21987;SDS011;11158;53.404;-1.510;2023-01-23T09:42:13;27.95;;;19.23;;
21987;SDS011;11158;53.404;-1.510;2023-01-23T09:44:44;28.20;;;18.85;;
21987;SDS011;11158;53.404;-1.510;2023-01-23T09:47:19;25.57;;;18.90;;
21987;SDS011;11158;53.404;-1.510;2023-01-23T09:50:26;24.80;;;18.90;;
21987;SDS011;11158;53.404;-1.510;2023-01-23T09:52:59;28.15;;;19.58;;
21987;SDS011;11158;53.404;-1.510;2023-01-23T09:58:00;32.88;;;20.52;;
21987;SDS011;11158;53.404;-1.510;2023-01-23T10:00:29;33.30;;;20.67;;
21987;SDS011;11158;53.404;-1.510;2023-01-23T10:02:56;30.00;;;19.67;;
21987;SDS011;11158;53.404;-1.510;2023-01-23T10:05:34;28.95;;;20.35;;
21987;SDS011;11158;53.404;-1.510;2023-01-23T10:11:13;33.45;;;19.85;;
21987;SDS011;11158;53.404;-1.510;2023-01-23T10:22:40;29.23;;;19.25;;
21987;SDS011;11158;53.404;-1.510;2023-01-23T10:25:12;28.15;;;18.75;;
21987;SDS011;11158;53.404;-1.510;2023-01-23T10:27:47;27.17;;;19.15;;
21987;SDS011;11158;53.404;-1.510;2023-01-23T10:33:08;26.27;;;17.25;;
21987;SDS011;11158;53.404;-1.510;2023-01-23T10:35:50;25.40;;;19.20;;
21987;SDS011;11158;53.404;-1.510;2023-01-23T10:38:30;28.52;;;19.27;;
21987;SDS011;11158;53.404;-1.510;2023-01-23T10:41:01;27.98;;;19.05;;
21987;SDS011;11158;53.404;-1.510;2023-01-23T10:46:18;28.73;;;19.83;;
21987;SDS011;11158;53.404;-1.510;2023-01-23T10:48:48;29.80;;;19.20;;
21987;SDS011;11158;53.404;-1.510;2023-01-23T10:54:12;30.05;;;19.33;;
21987;SDS011;11158;53.404;-1.510;2023-01-23T11:00:26;28.95;;;18.23;;
21987;SDS011;11158;53.404;-1.510;2023-01-23T11:04:59;30.05;;;18.30;;
21987;SDS011;11158;53.404;-1.510;2023-01-23T11:07:35;30.08;;;19.77;;
21987;SDS011;11158;53.404;-1.510;2023-01-23T11:12:34;25.85;;;17.92;;
21987;SDS011;11158;53.404;-1.510;2023-01-23T11:15:12;32.10;;;19.45;;
21987;SDS011;11158;53.404;-1.510;2023-01-23T11:17:52;28.90;;;18.67;;
21987;SDS011;11158;53.404;-1.510;2023-01-23T11:36:34;23.70;;;16.90;;
21987;SDS011;11158;53.404;-1.510;2023-01-23T11:41:46;29.27;;;15.98;;
21987;SDS011;11158;53.404;-1.510;2023-01-23T11:44:18;25.75;;;17.00;;
21987;SDS011;11158;53.404;-1.510;2023-01-23T11:49:46;22.92;;;15.60;;
21987;SDS011;11158;53.404;-1.510;2023-01-23T11:52:35;24.15;;;16.17;;
21987;SDS011;11158;53.404;-1.510;2023-01-23T12:00:46;22.83;;;15.70;;
21987;SDS011;11158;53.404;-1.510;2023-01-23T12:03:27;23.33;;;17.02;;
21987;SDS011;11158;53.404;-1.510;2023-01-23T12:06:14;24.40;;;16.33;;
21987;SDS011;11158;53.404;-1.510;2023-01-23T12:09:19;23.58;;;16.13;;
21987;SDS011;11158;53.404;-1.510;2023-01-23T12:14:49;25.52;;;16.25;;
21987;SDS011;11158;53.404;-1.510;2023-01-23T12:38:55;20.52;;;15.50;;
21987;SDS011;11158;53.404;-1.510;2023-01-23T12:41:51;20.75;;;15.35;;
21987;SDS011;11158;53.404;-1.510;2023-01-23T12:44:40;21.13;;;15.13;;
21987;SDS011;11158;53.404;-1.510;2023-01-23T12:47:16;20.67;;;15.18;;
21987;SDS011;11158;53.404;-1.510;2023-01-23T12:52:26;20.88;;;14.00;;
21987;SDS011;11158;53.404;-1.510;2023-01-23T12:57:31;18.17;;;13.43;;
21987;SDS011;11158;53.404;-1.510;2023-01-23T13:00:20;18.05;;;13.57;;
21987;SDS011;11158;53.404;-1.510;2023-01-23T13:05:29;16.92;;;13.30;;
21987;SDS011;11158;53.404;-1.510;2023-01-23T13:11:15;18.42;;;13.05;;
21987;SDS011;11158;53.404;-1.510;2023-01-23T13:14:21;19.15;;;13.73;;
21987;SDS011;11158;53.404;-1.510;2023-01-23T13:16:59;21.88;;;14.27;;
21987;SDS011;11158;53.404;-1.510;2023-01-23T13:19:36;19.08;;;14.20;;
21987;SDS011;11158;53.404;-1.510;2023-01-23T13:22:28;21.73;;;13.75;;
21987;SDS011;11158;53.404;-1.510;2023-01-23T13:27:41;19.33;;;13.05;;
21987;SDS011;11158;53.404;-1.510;2023-01-23T13:32:48;22.63;;;13.85;;
21987;SDS011;11158;53.404;-1.510;2023-01-23T13:38:54;19.73;;;14.35;;
21987;SDS011;11158;53.404;-1.510;2023-01-23T13:49:02;18.60;;;13.00;;
21987;SDS011;11158;53.404;-1.510;2023-01-23T13:51:58;17.30;;;12.38;;
21987;SDS011;11158;53.404;-1.510;2023-01-23T13:54:27;20.95;;;13.98;;
21987;SDS011;11158;53.404;-1.510;2023-01-23T13:57:21;15.38;;;12.32;;
21987;SDS011;11158;53.404;-1.510;2023-01-23T13:59:50;17.38;;;12.32;;
21987;SDS011;11158;53.404;-1.510;2023-01-23T14:05:25;18.13;;;13.02;;
21987;SDS011;11158;53.404;-1.510;2023-01-23T14:08:00;19.52;;;12.55;;
21987;SDS011;11158;53.404;-1.510;2023-01-23T14:10:29;19.48;;;12.95;;
21987;SDS011;11158;53.404;-1.510;2023-01-23T14:13:04;19.35;;;12.80;;
21987;SDS011;11158;53.404;-1.510;2023-01-23T14:15:35;16.75;;;11.80;;
21987;SDS011;11158;53.404;-1.510;2023-01-23T14:18:24;20.13;;;13.27;;
21987;SDS011;11158;53.404;-1.510;2023-01-23T14:20:58;19.35;;;13.27;;
21987;SDS011;11158;53.404;-1.510;2023-01-23T14:26:14;19.63;;;12.60;;
21987;SDS011;11158;53.404;-1.510;2023-01-23T14:29:01;18.05;;;12.43;;
21987;SDS011;11158;53.404;-1.510;2023-01-23T14:31:30;16.95;;;12.68;;
21987;SDS011;11158;53.404;-1.510;2023-01-23T14:34:05;13.02;;;9.52;;
21987;SDS011;11158;53.404;-1.510;2023-01-23T14:36:40;16.73;;;12.80;;
21987;SDS011;11158;53.404;-1.510;2023-01-23T14:39:21;18.80;;;12.23;;
21987;SDS011;11158;53.404;-1.510;2023-01-23T14:41:52;16.23;;;12.15;;
21987;SDS011;11158;53.404;-1.510;2023-01-23T14:44:39;14.50;;;10.88;;
21987;SDS011;11158;53.404;-1.510;2023-01-23T14:47:20;16.50;;;11.48;;
21987;SDS011;11158;53.404;-1.510;2023-01-23T14:49:50;16.60;;;9.90;;
21987;SDS011;11158;53.404;-1.510;2023-01-23T14:52:19;13.52;;;9.93;;
21987;SDS011;11158;53.404;-1.510;2023-01-23T14:54:48;16.42;;;10.63;;
21987;SDS011;11158;53.404;-1.510;2023-01-23T14:57:15;16.05;;;11.80;;
21987;SDS011;11158;53.404;-1.510;2023-01-23T14:59:41;19.70;;;12.20;;
21987;SDS011;11158;53.404;-1.510;2023-01-23T15:02:23;15.55;;;10.73;;
21987;SDS011;11158;53.404;-1.510;2023-01-23T15:10:29;16.85;;;10.98;;
21987;SDS011;11158;53.404;-1.510;2023-01-23T15:15:44;11.55;;;9.57;;
21987;SDS011;11158;53.404;-1.510;2023-01-23T15:18:19;14.75;;;10.30;;
21987;SDS011;11158;53.404;-1.510;2023-01-23T15:21:06;13.35;;;9.75;;
21987;SDS011;11158;53.404;-1.510;2023-01-23T15:23:34;13.27;;;9.05;;
21987;SDS011;11158;53.404;-1.510;2023-01-23T15:26:10;13.80;;;9.55;;
21987;SDS011;11158;53.404;-1.510;2023-01-23T15:28:56;16.77;;;9.57;;
21987;SDS011;11158;53.404;-1.510;2023-01-23T15:31:27;12.35;;;9.15;;
21987;SDS011;11158;53.404;-1.510;2023-01-23T15:36:35;13.68;;;9.80;;
21987;SDS011;11158;53.404;-1.510;2023-01-23T15:39:01;17.92;;;10.30;;
21987;SDS011;11158;53.404;-1.510;2023-01-23T15:44:28;18.92;;;10.88;;
21987;SDS011;11158;53.404;-1.510;2023-01-23T15:46:55;17.10;;;10.75;;
21987;SDS011;11158;53.404;-1.510;2023-01-23T15:49:26;17.33;;;11.07;;
21987;SDS011;11158;53.404;-1.510;2023-01-23T15:51:56;17.10;;;11.45;;
21987;SDS011;11158;53.404;-1.510;2023-01-23T15:54:33;16.48;;;12.13;;
21987;SDS011;11158;53.404;-1.510;2023-01-23T15:57:01;18.75;;;12.73;;
21987;SDS011;11158;53.404;-1.510;2023-01-23T15:59:27;17.88;;;11.95;;
21987;SDS011;11158;53.404;-1.510;2023-01-23T16:01:53;18.70;;;12.35;;
21987;SDS011;11158;53.404;-1.510;2023-01-23T16:04:20;19.52;;;13.73;;
21987;SDS011;11158;53.404;-1.510;2023-01-23T16:06:45;21.52;;;13.38;;
21987;SDS011;11158;53.404;-1.510;2023-01-23T16:09:30;21.90;;;13.50;;
21987;SDS011;11158;53.404;-1.510;2023-01-23T16:11:58;20.23;;;13.10;;
21987;SDS011;11158;53.404;-1.510;2023-01-23T16:14:25;23.70;;;12.82;;
21987;SDS011;11158;53.404;-1.510;2023-01-23T16:16:51;17.52;;;12.05;;
21987;SDS011;11158;53.404;-1.510;2023-01-23T16:19:18;20.77;;;13.82;;
21987;SDS011;11158;53.404;-1.510;2023-01-23T16:21:43;17.30;;;12.35;;
21987;SDS011;11158;53.404;-1.510;2023-01-23T16:24:16;16.17;;;11.50;;
21987;SDS011;11158;53.404;-1.510;2023-01-23T16:26:49;16.83;;;12.20;;
21987;SDS011;11158;53.404;-1.510;2023-01-23T16:29:20;20.38;;;12.25;;
21987;SDS011;11158;53.404;-1.510;2023-01-23T16:31:49;18.10;;;12.02;;
21987;SDS011;11158;53.404;-1.510;2023-01-23T16:34:16;18.80;;;13.45;;
21987;SDS011;11158;53.404;-1.510;2023-01-23T16:36:42;21.23;;;13.88;;
21987;SDS011;11158;53.404;-1.510;2023-01-23T16:39:11;19.52;;;13.23;;
21987;SDS011;11158;53.404;-1.510;2023-01-23T16:41:42;21.20;;;13.77;;